Chepstow, United Kingdom
Current Conditions -  °F | °C
As of 7:50 PM on Sunday 25 Jan 2015 (Local Time) from EGGD Reporting Station
Broken Clouds Broken Clouds  
Wind Chill: 39°   Ceiling: 900
Heat Index: 45°   Visibility: 6mi
Dew Point: 45°   Wind: 12mph
Humidity: 100%   Direction: 230°SW
Pressure: 30.33"   Gusts: NA
Location:  51.64°N, 2.68°W
Report Text: EGGD 251950Z 23010KT 9999 BKN009 07/07 Q1027
Loading
Personal Weather Stations






























Interactive Weather Map New forecast layout! Learn more

10-Day Weather Forecast

Advertisements
Track Severe Weather on mobile